sensor_id;sensor_type;location;lat;lon;timestamp;P1;durP1;ratioP1;P2;durP2;ratioP2
5040;SDS011;2539;52.568;13.364;2022-08-19T00:00:05;15.63;;;14.25;;
5040;SDS011;2539;52.568;13.364;2022-08-19T00:02:34;14.73;;;13.50;;
5040;SDS011;2539;52.568;13.364;2022-08-19T00:05:00;16.10;;;14.70;;
5040;SDS011;2539;52.568;13.364;2022-08-19T00:07:27;16.00;;;14.50;;
5040;SDS011;2539;52.568;13.364;2022-08-19T00:09:53;14.83;;;13.63;;
5040;SDS011;2539;52.568;13.364;2022-08-19T00:12:19;16.57;;;15.00;;
5040;SDS011;2539;52.568;13.364;2022-08-19T00:14:45;16.30;;;14.90;;
5040;SDS011;2539;52.568;13.364;2022-08-19T00:17:11;15.17;;;13.87;;
5040;SDS011;2539;52.568;13.364;2022-08-19T00:19:38;15.97;;;14.57;;
5040;SDS011;2539;52.568;13.364;2022-08-19T00:22:04;14.60;;;13.30;;
5040;SDS011;2539;52.568;13.364;2022-08-19T00:24:31;15.40;;;13.93;;
5040;SDS011;2539;52.568;13.364;2022-08-19T00:26:58;16.17;;;14.47;;
5040;SDS011;2539;52.568;13.364;2022-08-19T00:29:24;15.23;;;14.03;;
5040;SDS011;2539;52.568;13.364;2022-08-19T00:31:51;14.50;;;13.20;;
5040;SDS011;2539;52.568;13.364;2022-08-19T00:34:22;14.00;;;12.80;;
5040;SDS011;2539;52.568;13.364;2022-08-19T00:36:49;13.60;;;12.50;;
5040;SDS011;2539;52.568;13.364;2022-08-19T00:39:15;13.20;;;12.10;;
5040;SDS011;2539;52.568;13.364;2022-08-19T00:41:42;14.17;;;12.97;;
5040;SDS011;2539;52.568;13.364;2022-08-19T00:44:12;13.77;;;12.20;;
5040;SDS011;2539;52.568;13.364;2022-08-19T00:46:43;14.20;;;13.00;;
5040;SDS011;2539;52.568;13.364;2022-08-19T00:49:12;14.17;;;12.97;;
5040;SDS011;2539;52.568;13.364;2022-08-19T00:51:51;12.80;;;11.70;;
5040;SDS011;2539;52.568;13.364;2022-08-19T00:54:21;14.27;;;12.90;;
5040;SDS011;2539;52.568;13.364;2022-08-19T00:56:48;14.13;;;13.03;;
5040;SDS011;2539;52.568;13.364;2022-08-19T00:59:15;14.50;;;13.40;;
5040;SDS011;2539;52.568;13.364;2022-08-19T01:01:43;15.80;;;14.50;;
5040;SDS011;2539;52.568;13.364;2022-08-19T01:04:11;16.87;;;15.17;;
5040;SDS011;2539;52.568;13.364;2022-08-19T01:06:38;16.23;;;14.83;;
5040;SDS011;2539;52.568;13.364;2022-08-19T01:09:06;15.07;;;13.53;;
5040;SDS011;2539;52.568;13.364;2022-08-19T01:11:34;18.27;;;16.70;;
5040;SDS011;2539;52.568;13.364;2022-08-19T01:14:03;16.87;;;15.47;;
5040;SDS011;2539;52.568;13.364;2022-08-19T01:16:30;15.37;;;14.17;;
5040;SDS011;2539;52.568;13.364;2022-08-19T01:18:58;15.80;;;14.43;;
5040;SDS011;2539;52.568;13.364;2022-08-19T01:21:30;30.53;;;15.03;;
5040;SDS011;2539;52.568;13.364;2022-08-19T01:24:00;16.27;;;14.60;;
5040;SDS011;2539;52.568;13.364;2022-08-19T01:26:26;15.50;;;14.30;;
5040;SDS011;2539;52.568;13.364;2022-08-19T01:28:54;17.10;;;15.60;;
5040;SDS011;2539;52.568;13.364;2022-08-19T01:31:23;18.60;;;15.83;;
5040;SDS011;2539;52.568;13.364;2022-08-19T01:33:51;17.20;;;15.80;;
5040;SDS011;2539;52.568;13.364;2022-08-19T01:36:23;17.83;;;16.20;;
5040;SDS011;2539;52.568;13.364;2022-08-19T01:38:52;16.60;;;15.30;;
5040;SDS011;2539;52.568;13.364;2022-08-19T01:41:19;19.53;;;17.53;;
5040;SDS011;2539;52.568;13.364;2022-08-19T01:43:45;18.13;;;16.43;;
5040;SDS011;2539;52.568;13.364;2022-08-19T01:46:12;20.80;;;17.50;;
5040;SDS011;2539;52.568;13.364;2022-08-19T01:48:39;19.07;;;17.00;;
5040;SDS011;2539;52.568;13.364;2022-08-19T01:51:07;25.87;;;18.00;;
5040;SDS011;2539;52.568;13.364;2022-08-19T01:53:35;37.63;;;17.20;;
5040;SDS011;2539;52.568;13.364;2022-08-19T01:56:02;23.97;;;19.33;;
5040;SDS011;2539;52.568;13.364;2022-08-19T01:58:34;17.77;;;16.25;;
5040;SDS011;2539;52.568;13.364;2022-08-19T02:01:06;17.37;;;15.87;;
5040;SDS011;2539;52.568;13.364;2022-08-19T02:03:33;22.80;;;18.10;;
5040;SDS011;2539;52.568;13.364;2022-08-19T02:06:02;20.83;;;19.00;;
5040;SDS011;2539;52.568;13.364;2022-08-19T02:08:31;26.70;;;23.20;;
5040;SDS011;2539;52.568;13.364;2022-08-19T02:11:00;25.47;;;22.87;;
5040;SDS011;2539;52.568;13.364;2022-08-19T02:13:26;21.10;;;18.97;;
5040;SDS011;2539;52.568;13.364;2022-08-19T02:15:53;20.63;;;18.63;;
5040;SDS011;2539;52.568;13.364;2022-08-19T02:18:19;21.90;;;19.73;;
5040;SDS011;2539;52.568;13.364;2022-08-19T02:20:45;20.70;;;18.90;;
5040;SDS011;2539;52.568;13.364;2022-08-19T02:23:13;20.40;;;18.50;;
5040;SDS011;2539;52.568;13.364;2022-08-19T02:25:40;19.93;;;18.03;;
5040;SDS011;2539;52.568;13.364;2022-08-19T02:28:06;20.03;;;18.17;;
5040;SDS011;2539;52.568;13.364;2022-08-19T02:30:32;23.60;;;20.30;;
5040;SDS011;2539;52.568;13.364;2022-08-19T02:32:58;22.17;;;19.77;;
5040;SDS011;2539;52.568;13.364;2022-08-19T02:35:25;20.80;;;18.93;;
5040;SDS011;2539;52.568;13.364;2022-08-19T02:37:51;23.50;;;21.07;;
5040;SDS011;2539;52.568;13.364;2022-08-19T02:40:36;23.00;;;20.90;;
5040;SDS011;2539;52.568;13.364;2022-08-19T02:43:03;22.30;;;20.20;;
5040;SDS011;2539;52.568;13.364;2022-08-19T02:45:37;22.73;;;20.57;;
5040;SDS011;2539;52.568;13.364;2022-08-19T02:48:04;24.17;;;21.73;;
5040;SDS011;2539;52.568;13.364;2022-08-19T02:50:31;23.00;;;20.90;;
5040;SDS011;2539;52.568;13.364;2022-08-19T02:52:58;22.70;;;20.50;;
5040;SDS011;2539;52.568;13.364;2022-08-19T02:55:26;24.53;;;22.10;;
5040;SDS011;2539;52.568;13.364;2022-08-19T02:57:53;24.43;;;22.23;;
5040;SDS011;2539;52.568;13.364;2022-08-19T03:00:19;23.70;;;21.50;;
5040;SDS011;2539;52.568;13.364;2022-08-19T03:02:46;24.60;;;22.10;;
5040;SDS011;2539;52.568;13.364;2022-08-19T03:05:12;23.57;;;21.43;;
5040;SDS011;2539;52.568;13.364;2022-08-19T03:07:38;25.20;;;22.60;;
5040;SDS011;2539;52.568;13.364;2022-08-19T03:10:05;27.55;;;23.95;;
5040;SDS011;2539;52.568;13.364;2022-08-19T03:12:34;27.10;;;24.33;;
5040;SDS011;2539;52.568;13.364;2022-08-19T03:15:02;24.90;;;22.50;;
5040;SDS011;2539;52.568;13.364;2022-08-19T03:17:29;32.17;;;28.98;;
5040;SDS011;2539;52.568;13.364;2022-08-19T03:19:55;37.42;;;33.67;;
5040;SDS011;2539;52.568;13.364;2022-08-19T03:22:22;32.47;;;29.40;;
5040;SDS011;2539;52.568;13.364;2022-08-19T03:24:48;29.93;;;27.00;;
5040;SDS011;2539;52.568;13.364;2022-08-19T03:27:14;26.47;;;23.97;;
5040;SDS011;2539;52.568;13.364;2022-08-19T03:29:39;26.67;;;24.13;;
5040;SDS011;2539;52.568;13.364;2022-08-19T03:32:05;26.20;;;23.27;;
5040;SDS011;2539;52.568;13.364;2022-08-19T03:34:32;29.07;;;26.27;;
5040;SDS011;2539;52.568;13.364;2022-08-19T03:37:03;29.00;;;26.27;;
5040;SDS011;2539;52.568;13.364;2022-08-19T03:39:32;33.00;;;29.90;;
5040;SDS011;2539;52.568;13.364;2022-08-19T03:41:58;51.60;;;46.40;;
5040;SDS011;2539;52.568;13.364;2022-08-19T03:44:28;51.87;;;46.77;;
5040;SDS011;2539;52.568;13.364;2022-08-19T03:46:56;39.07;;;35.20;;
5040;SDS011;2539;52.568;13.364;2022-08-19T03:49:24;32.37;;;29.23;;
5040;SDS011;2539;52.568;13.364;2022-08-19T03:51:52;36.90;;;33.20;;
5040;SDS011;2539;52.568;13.364;2022-08-19T03:54:20;33.60;;;30.50;;
5040;SDS011;2539;52.568;13.364;2022-08-19T03:56:48;30.37;;;27.30;;
5040;SDS011;2539;52.568;13.364;2022-08-19T03:59:17;28.90;;;26.30;;
5040;SDS011;2539;52.568;13.364;2022-08-19T04:01:48;28.60;;;26.00;;
5040;SDS011;2539;52.568;13.364;2022-08-19T04:04:14;34.63;;;31.10;;
5040;SDS011;2539;52.568;13.364;2022-08-19T04:06:40;31.50;;;28.20;;
5040;SDS011;2539;52.568;13.364;2022-08-19T04:09:07;32.10;;;28.90;;
5040;SDS011;2539;52.568;13.364;2022-08-19T04:11:46;30.17;;;27.23;;
5040;SDS011;2539;52.568;13.364;2022-08-19T04:14:16;32.00;;;28.50;;
5040;SDS011;2539;52.568;13.364;2022-08-19T04:16:45;29.47;;;26.73;;
5040;SDS011;2539;52.568;13.364;2022-08-19T04:19:13;29.30;;;26.50;;
5040;SDS011;2539;52.568;13.364;2022-08-19T04:21:42;26.03;;;23.63;;
5040;SDS011;2539;52.568;13.364;2022-08-19T04:24:13;24.02;;;21.98;;
5040;SDS011;2539;52.568;13.364;2022-08-19T04:26:40;20.67;;;18.87;;
5040;SDS011;2539;52.568;13.364;2022-08-19T04:29:08;20.60;;;18.70;;
5040;SDS011;2539;52.568;13.364;2022-08-19T04:31:37;20.57;;;18.60;;
5040;SDS011;2539;52.568;13.364;2022-08-19T04:34:05;21.33;;;19.53;;
5040;SDS011;2539;52.568;13.364;2022-08-19T04:36:34;20.10;;;18.30;;
5040;SDS011;2539;52.568;13.364;2022-08-19T04:39:04;21.07;;;19.17;;
5040;SDS011;2539;52.568;13.364;2022-08-19T04:41:32;22.23;;;20.27;;
5040;SDS011;2539;52.568;13.364;2022-08-19T04:44:17;21.33;;;19.33;;
5040;SDS011;2539;52.568;13.364;2022-08-19T04:46:47;22.23;;;20.30;;
5040;SDS011;2539;52.568;13.364;2022-08-19T04:49:15;20.17;;;18.55;;
5040;SDS011;2539;52.568;13.364;2022-08-19T04:51:43;20.80;;;19.00;;
5040;SDS011;2539;52.568;13.364;2022-08-19T04:54:11;19.80;;;18.17;;
5040;SDS011;2539;52.568;13.364;2022-08-19T04:56:38;22.00;;;19.70;;
5040;SDS011;2539;52.568;13.364;2022-08-19T04:59:04;21.70;;;19.80;;
5040;SDS011;2539;52.568;13.364;2022-08-19T05:01:31;20.13;;;18.23;;
5040;SDS011;2539;52.568;13.364;2022-08-19T05:03:58;20.13;;;18.30;;
5040;SDS011;2539;52.568;13.364;2022-08-19T05:06:26;21.50;;;19.70;;
5040;SDS011;2539;52.568;13.364;2022-08-19T05:08:54;22.30;;;20.17;;
5040;SDS011;2539;52.568;13.364;2022-08-19T05:11:22;20.90;;;18.90;;
5040;SDS011;2539;52.568;13.364;2022-08-19T05:13:53;19.80;;;18.03;;
5040;SDS011;2539;52.568;13.364;2022-08-19T05:16:21;20.37;;;18.43;;
5040;SDS011;2539;52.568;13.364;2022-08-19T05:18:48;19.87;;;18.17;;
5040;SDS011;2539;52.568;13.364;2022-08-19T05:21:34;18.53;;;16.93;;
5040;SDS011;2539;52.568;13.364;2022-08-19T05:24:20;18.50;;;16.80;;
5040;SDS011;2539;52.568;13.364;2022-08-19T05:26:48;18.47;;;16.90;;
5040;SDS011;2539;52.568;13.364;2022-08-19T05:29:17;19.27;;;17.20;;
5040;SDS011;2539;52.568;13.364;2022-08-19T05:31:46;18.50;;;16.87;;
5040;SDS011;2539;52.568;13.364;2022-08-19T05:34:15;18.73;;;17.07;;
5040;SDS011;2539;52.568;13.364;2022-08-19T05:36:43;17.17;;;15.63;;
5040;SDS011;2539;52.568;13.364;2022-08-19T05:39:14;18.07;;;16.40;;
5040;SDS011;2539;52.568;13.364;2022-08-19T05:41:42;18.00;;;16.40;;
5040;SDS011;2539;52.568;13.364;2022-08-19T05:44:09;17.40;;;15.90;;
5040;SDS011;2539;52.568;13.364;2022-08-19T05:46:36;17.10;;;15.63;;
5040;SDS011;2539;52.568;13.364;2022-08-19T05:49:04;18.10;;;16.30;;
5040;SDS011;2539;52.568;13.364;2022-08-19T05:51:31;16.57;;;15.17;;
5040;SDS011;2539;52.568;13.364;2022-08-19T05:54:00;17.07;;;15.47;;
5040;SDS011;2539;52.568;13.364;2022-08-19T05:56:30;16.33;;;14.83;;
5040;SDS011;2539;52.568;13.364;2022-08-19T05:58:57;16.20;;;14.80;;
5040;SDS011;2539;52.568;13.364;2022-08-19T06:01:24;16.88;;;15.48;;
5040;SDS011;2539;52.568;13.364;2022-08-19T06:03:50;16.40;;;15.10;;
5040;SDS011;2539;52.568;13.364;2022-08-19T06:06:16;16.37;;;14.83;;
5040;SDS011;2539;52.568;13.364;2022-08-19T06:08:42;16.80;;;15.40;;
5040;SDS011;2539;52.568;13.364;2022-08-19T06:13:40;14.63;;;13.43;;
5040;SDS011;2539;52.568;13.364;2022-08-19T06:16:06;16.07;;;14.53;;
5040;SDS011;2539;52.568;13.364;2022-08-19T06:18:32;15.27;;;13.87;;
5040;SDS011;2539;52.568;13.364;2022-08-19T06:20:59;15.25;;;14.05;;
5040;SDS011;2539;52.568;13.364;2022-08-19T06:23:25;15.30;;;13.90;;
5040;SDS011;2539;52.568;13.364;2022-08-19T06:25:52;14.43;;;13.13;;
5040;SDS011;2539;52.568;13.364;2022-08-19T06:28:18;15.83;;;14.43;;
5040;SDS011;2539;52.568;13.364;2022-08-19T06:30:44;15.97;;;14.50;;
5040;SDS011;2539;52.568;13.364;2022-08-19T06:33:10;17.55;;;16.05;;
5040;SDS011;2539;52.568;13.364;2022-08-19T06:35:40;17.17;;;15.68;;
5040;SDS011;2539;52.568;13.364;2022-08-19T06:38:07;15.70;;;14.30;;
5040;SDS011;2539;52.568;13.364;2022-08-19T06:40:35;17.73;;;16.23;;
5040;SDS011;2539;52.568;13.364;2022-08-19T06:43:03;16.77;;;15.17;;
5040;SDS011;2539;52.568;13.364;2022-08-19T06:45:29;16.98;;;15.57;;
5040;SDS011;2539;52.568;13.364;2022-08-19T06:47:56;17.87;;;16.30;;
5040;SDS011;2539;52.568;13.364;2022-08-19T06:50:23;18.17;;;16.63;;
5040;SDS011;2539;52.568;13.364;2022-08-19T06:52:49;18.30;;;16.70;;
5040;SDS011;2539;52.568;13.364;2022-08-19T06:55:15;16.77;;;15.37;;
5040;SDS011;2539;52.568;13.364;2022-08-19T06:57:42;17.33;;;15.73;;
5040;SDS011;2539;52.568;13.364;2022-08-19T07:00:08;18.93;;;16.17;;
5040;SDS011;2539;52.568;13.364;2022-08-19T07:02:42;17.35;;;15.95;;
5040;SDS011;2539;52.568;13.364;2022-08-19T07:05:08;17.50;;;16.00;;
5040;SDS011;2539;52.568;13.364;2022-08-19T07:07:35;17.47;;;15.93;;
5040;SDS011;2539;52.568;13.364;2022-08-19T07:10:02;16.93;;;15.27;;
5040;SDS011;2539;52.568;13.364;2022-08-19T07:12:29;17.07;;;15.57;;
5040;SDS011;2539;52.568;13.364;2022-08-19T07:14:59;17.10;;;15.70;;
5040;SDS011;2539;52.568;13.364;2022-08-19T07:17:26;19.10;;;17.30;;
5040;SDS011;2539;52.568;13.364;2022-08-19T07:19:52;18.50;;;16.97;;
5040;SDS011;2539;52.568;13.364;2022-08-19T07:22:18;17.40;;;15.60;;
5040;SDS011;2539;52.568;13.364;2022-08-19T07:24:45;19.07;;;17.33;;
5040;SDS011;2539;52.568;13.364;2022-08-19T07:27:13;19.67;;;17.43;;
5040;SDS011;2539;52.568;13.364;2022-08-19T07:29:39;18.33;;;16.43;;
5040;SDS011;2539;52.568;13.364;2022-08-19T07:32:05;18.73;;;16.98;;
5040;SDS011;2539;52.568;13.364;2022-08-19T07:34:32;21.50;;;19.60;;
5040;SDS011;2539;52.568;13.364;2022-08-19T07:37:03;18.03;;;16.47;;
5040;SDS011;2539;52.568;13.364;2022-08-19T07:39:32;18.40;;;16.80;;
5040;SDS011;2539;52.568;13.364;2022-08-19T07:42:00;18.70;;;16.80;;
5040;SDS011;2539;52.568;13.364;2022-08-19T07:44:29;18.23;;;16.63;;
5040;SDS011;2539;52.568;13.364;2022-08-19T07:46:55;18.57;;;17.07;;
5040;SDS011;2539;52.568;13.364;2022-08-19T07:49:23;18.60;;;17.10;;
5040;SDS011;2539;52.568;13.364;2022-08-19T07:51:50;19.53;;;17.93;;
5040;SDS011;2539;52.568;13.364;2022-08-19T07:54:23;18.90;;;17.30;;
5040;SDS011;2539;52.568;13.364;2022-08-19T07:56:50;20.90;;;18.77;;
5040;SDS011;2539;52.568;13.364;2022-08-19T07:59:18;19.40;;;17.80;;
5040;SDS011;2539;52.568;13.364;2022-08-19T08:01:46;19.63;;;17.93;;
5040;SDS011;2539;52.568;13.364;2022-08-19T08:04:13;19.10;;;17.40;;
5040;SDS011;2539;52.568;13.364;2022-08-19T08:06:58;20.03;;;18.10;;
5040;SDS011;2539;52.568;13.364;2022-08-19T08:09:44;19.43;;;17.50;;
5040;SDS011;2539;52.568;13.364;2022-08-19T08:12:18;18.80;;;17.23;;
5040;SDS011;2539;52.568;13.364;2022-08-19T08:14:51;20.77;;;18.77;;
5040;SDS011;2539;52.568;13.364;2022-08-19T08:17:20;20.33;;;18.63;;
5040;SDS011;2539;52.568;13.364;2022-08-19T08:19:48;22.53;;;20.20;;
5040;SDS011;2539;52.568;13.364;2022-08-19T08:22:17;22.63;;;20.53;;
5040;SDS011;2539;52.568;13.364;2022-08-19T08:25:09;21.20;;;18.97;;
5040;SDS011;2539;52.568;13.364;2022-08-19T08:27:40;21.10;;;19.20;;
5040;SDS011;2539;52.568;13.364;2022-08-19T08:30:13;20.40;;;18.70;;
5040;SDS011;2539;52.568;13.364;2022-08-19T08:32:41;19.50;;;17.90;;
5040;SDS011;2539;52.568;13.364;2022-08-19T08:35:10;19.60;;;17.80;;
5040;SDS011;2539;52.568;13.364;2022-08-19T08:37:38;20.27;;;18.30;;
5040;SDS011;2539;52.568;13.364;2022-08-19T08:42:58;20.20;;;18.17;;
5040;SDS011;2539;52.568;13.364;2022-08-19T08:45:36;20.53;;;18.83;;
5040;SDS011;2539;52.568;13.364;2022-08-19T08:48:16;20.83;;;18.77;;
5040;SDS011;2539;52.568;13.364;2022-08-19T08:50:46;20.70;;;18.77;;
5040;SDS011;2539;52.568;13.364;2022-08-19T08:53:19;19.67;;;17.97;;
5040;SDS011;2539;52.568;13.364;2022-08-19T08:55:46;19.73;;;17.73;;
5040;SDS011;2539;52.568;13.364;2022-08-19T08:58:14;20.23;;;18.40;;
5040;SDS011;2539;52.568;13.364;2022-08-19T09:00:57;19.77;;;18.17;;
5040;SDS011;2539;52.568;13.364;2022-08-19T09:03:24;20.33;;;18.60;;
5040;SDS011;2539;52.568;13.364;2022-08-19T09:06:03;19.60;;;17.83;;
5040;SDS011;2539;52.568;13.364;2022-08-19T09:08:51;19.53;;;17.93;;
5040;SDS011;2539;52.568;13.364;2022-08-19T09:11:47;18.43;;;16.90;;
5040;SDS011;2539;52.568;13.364;2022-08-19T09:17:10;18.40;;;16.90;;
5040;SDS011;2539;52.568;13.364;2022-08-19T09:19:48;18.73;;;17.07;;
5040;SDS011;2539;52.568;13.364;2022-08-19T09:22:14;18.87;;;17.20;;
5040;SDS011;2539;52.568;13.364;2022-08-19T09:24:41;18.27;;;16.40;;
5040;SDS011;2539;52.568;13.364;2022-08-19T09:27:07;17.73;;;16.20;;
5040;SDS011;2539;52.568;13.364;2022-08-19T09:29:34;18.37;;;16.70;;
5040;SDS011;2539;52.568;13.364;2022-08-19T09:32:00;18.70;;;16.97;;
5040;SDS011;2539;52.568;13.364;2022-08-19T09:34:26;17.57;;;15.97;;
5040;SDS011;2539;52.568;13.364;2022-08-19T09:36:54;17.40;;;15.80;;
5040;SDS011;2539;52.568;13.364;2022-08-19T09:39:23;17.60;;;15.90;;
5040;SDS011;2539;52.568;13.364;2022-08-19T09:41:49;16.27;;;14.87;;
5040;SDS011;2539;52.568;13.364;2022-08-19T09:44:16;17.30;;;15.70;;
5040;SDS011;2539;52.568;13.364;2022-08-19T09:46:42;16.13;;;14.73;;
5040;SDS011;2539;52.568;13.364;2022-08-19T09:49:08;16.00;;;14.60;;
5040;SDS011;2539;52.568;13.364;2022-08-19T09:51:35;16.50;;;15.00;;
5040;SDS011;2539;52.568;13.364;2022-08-19T09:54:02;16.17;;;14.50;;
5040;SDS011;2539;52.568;13.364;2022-08-19T09:56:29;15.20;;;13.90;;
5040;SDS011;2539;52.568;13.364;2022-08-19T09:58:57;15.00;;;13.80;;
5040;SDS011;2539;52.568;13.364;2022-08-19T10:01:26;15.90;;;14.30;;
5040;SDS011;2539;52.568;13.364;2022-08-19T10:03:55;14.60;;;13.40;;
5040;SDS011;2539;52.568;13.364;2022-08-19T10:06:24;15.00;;;13.70;;
5040;SDS011;2539;52.568;13.364;2022-08-19T10:08:55;14.60;;;13.30;;
5040;SDS011;2539;52.568;13.364;2022-08-19T10:11:21;15.80;;;13.40;;
5040;SDS011;2539;52.568;13.364;2022-08-19T10:13:48;15.27;;;13.75;;
5040;SDS011;2539;52.568;13.364;2022-08-19T10:16:19;16.63;;;15.02;;
5040;SDS011;2539;52.568;13.364;2022-08-19T10:18:47;14.93;;;13.75;;
5040;SDS011;2539;52.568;13.364;2022-08-19T10:21:18;14.80;;;13.33;;
5040;SDS011;2539;52.568;13.364;2022-08-19T10:23:49;14.20;;;13.07;;
5040;SDS011;2539;52.568;13.364;2022-08-19T10:26:19;13.90;;;12.80;;
5040;SDS011;2539;52.568;13.364;2022-08-19T10:28:48;15.03;;;13.87;;
5040;SDS011;2539;52.568;13.364;2022-08-19T10:31:16;15.57;;;14.20;;
5040;SDS011;2539;52.568;13.364;2022-08-19T10:33:49;14.70;;;13.47;;
5040;SDS011;2539;52.568;13.364;2022-08-19T10:36:19;14.97;;;13.67;;
5040;SDS011;2539;52.568;13.364;2022-08-19T10:38:49;16.70;;;15.07;;
5040;SDS011;2539;52.568;13.364;2022-08-19T10:41:17;15.53;;;13.93;;
5040;SDS011;2539;52.568;13.364;2022-08-19T10:43:45;16.50;;;14.90;;
5040;SDS011;2539;52.568;13.364;2022-08-19T10:46:13;15.53;;;14.33;;
5040;SDS011;2539;52.568;13.364;2022-08-19T10:48:41;16.70;;;15.30;;
5040;SDS011;2539;52.568;13.364;2022-08-19T10:51:08;14.90;;;13.50;;
5040;SDS011;2539;52.568;13.364;2022-08-19T10:53:53;14.80;;;13.60;;
5040;SDS011;2539;52.568;13.364;2022-08-19T10:56:21;15.43;;;14.03;;
5040;SDS011;2539;52.568;13.364;2022-08-19T10:59:06;19.50;;;14.20;;
5040;SDS011;2539;52.568;13.364;2022-08-19T11:01:32;14.10;;;12.90;;
5040;SDS011;2539;52.568;13.364;2022-08-19T11:04:01;14.93;;;13.60;;
5040;SDS011;2539;52.568;13.364;2022-08-19T11:06:28;15.57;;;14.10;;
5040;SDS011;2539;52.568;13.364;2022-08-19T11:08:57;15.37;;;13.83;;
5040;SDS011;2539;52.568;13.364;2022-08-19T11:11:23;15.27;;;14.00;;
5040;SDS011;2539;52.568;13.364;2022-08-19T11:13:49;16.00;;;14.40;;
5040;SDS011;2539;52.568;13.364;2022-08-19T11:16:17;15.63;;;13.90;;
5040;SDS011;2539;52.568;13.364;2022-08-19T11:18:47;13.80;;;12.60;;
5040;SDS011;2539;52.568;13.364;2022-08-19T11:21:19;13.90;;;12.13;;
5040;SDS011;2539;52.568;13.364;2022-08-19T11:23:49;15.33;;;12.83;;
5040;SDS011;2539;52.568;13.364;2022-08-19T11:26:18;16.33;;;14.93;;
5040;SDS011;2539;52.568;13.364;2022-08-19T11:28:45;16.43;;;14.93;;
5040;SDS011;2539;52.568;13.364;2022-08-19T11:31:13;15.93;;;14.53;;
5040;SDS011;2539;52.568;13.364;2022-08-19T11:33:44;15.90;;;14.50;;
5040;SDS011;2539;52.568;13.364;2022-08-19T11:36:12;14.30;;;13.10;;
5040;SDS011;2539;52.568;13.364;2022-08-19T11:38:38;14.07;;;12.80;;
5040;SDS011;2539;52.568;13.364;2022-08-19T11:41:05;13.87;;;12.77;;
5040;SDS011;2539;52.568;13.364;2022-08-19T11:43:35;14.07;;;12.70;;
5040;SDS011;2539;52.568;13.364;2022-08-19T11:46:05;12.80;;;11.80;;
5040;SDS011;2539;52.568;13.364;2022-08-19T11:48:33;12.70;;;11.50;;
5040;SDS011;2539;52.568;13.364;2022-08-19T11:51:02;12.80;;;11.60;;
5040;SDS011;2539;52.568;13.364;2022-08-19T11:53:31;12.30;;;11.20;;
5040;SDS011;2539;52.568;13.364;2022-08-19T11:55:57;13.23;;;12.03;;
5040;SDS011;2539;52.568;13.364;2022-08-19T11:58:23;14.27;;;12.97;;
5040;SDS011;2539;52.568;13.364;2022-08-19T12:00:50;12.93;;;11.73;;
5040;SDS011;2539;52.568;13.364;2022-08-19T12:03:17;13.50;;;12.30;;
5040;SDS011;2539;52.568;13.364;2022-08-19T12:05:45;11.50;;;10.27;;
5040;SDS011;2539;52.568;13.364;2022-08-19T12:08:11;12.47;;;11.20;;
5040;SDS011;2539;52.568;13.364;2022-08-19T12:10:38;11.83;;;10.83;;
5040;SDS011;2539;52.568;13.364;2022-08-19T12:13:05;10.77;;;9.37;;
5040;SDS011;2539;52.568;13.364;2022-08-19T12:15:35;11.80;;;10.80;;
5040;SDS011;2539;52.568;13.364;2022-08-19T12:18:06;11.70;;;10.70;;
5040;SDS011;2539;52.568;13.364;2022-08-19T12:20:37;10.80;;;9.80;;
5040;SDS011;2539;52.568;13.364;2022-08-19T12:23:05;9.90;;;9.00;;
5040;SDS011;2539;52.568;13.364;2022-08-19T12:25:35;10.37;;;9.37;;
5040;SDS011;2539;52.568;13.364;2022-08-19T12:28:03;9.50;;;8.80;;
5040;SDS011;2539;52.568;13.364;2022-08-19T12:30:29;9.73;;;8.93;;
5040;SDS011;2539;52.568;13.364;2022-08-19T12:32:55;10.03;;;9.23;;
5040;SDS011;2539;52.568;13.364;2022-08-19T12:35:21;9.80;;;9.10;;
5040;SDS011;2539;52.568;13.364;2022-08-19T12:37:48;9.30;;;8.40;;
5040;SDS011;2539;52.568;13.364;2022-08-19T12:40:15;9.73;;;8.93;;
5040;SDS011;2539;52.568;13.364;2022-08-19T12:42:43;9.73;;;8.83;;
5040;SDS011;2539;52.568;13.364;2022-08-19T12:45:10;10.40;;;9.47;;
5040;SDS011;2539;52.568;13.364;2022-08-19T12:47:38;9.97;;;9.10;;
5040;SDS011;2539;52.568;13.364;2022-08-19T12:50:05;9.93;;;9.13;;
5040;SDS011;2539;52.568;13.364;2022-08-19T12:52:34;10.93;;;10.00;;
5040;SDS011;2539;52.568;13.364;2022-08-19T12:55:06;12.70;;;11.60;;
5040;SDS011;2539;52.568;13.364;2022-08-19T12:57:34;15.97;;;14.30;;
5040;SDS011;2539;52.568;13.364;2022-08-19T13:02:36;13.65;;;12.35;;
5040;SDS011;2539;52.568;13.364;2022-08-19T13:05:04;13.50;;;11.13;;
5040;SDS011;2539;52.568;13.364;2022-08-19T13:07:33;11.32;;;10.23;;
5040;SDS011;2539;52.568;13.364;2022-08-19T13:09:59;11.67;;;10.47;;
5040;SDS011;2539;52.568;13.364;2022-08-19T13:12:25;11.43;;;10.43;;
5040;SDS011;2539;52.568;13.364;2022-08-19T13:14:55;10.57;;;9.60;;
5040;SDS011;2539;52.568;13.364;2022-08-19T13:17:22;11.33;;;10.27;;
5040;SDS011;2539;52.568;13.364;2022-08-19T13:19:48;11.35;;;10.15;;
5040;SDS011;2539;52.568;13.364;2022-08-19T13:22:14;11.13;;;10.20;;
5040;SDS011;2539;52.568;13.364;2022-08-19T13:24:39;11.60;;;10.60;;
5040;SDS011;2539;52.568;13.364;2022-08-19T13:27:05;12.17;;;11.03;;
5040;SDS011;2539;52.568;13.364;2022-08-19T13:29:32;10.57;;;9.00;;
5040;SDS011;2539;52.568;13.364;2022-08-19T13:32:17;11.10;;;10.23;;
5040;SDS011;2539;52.568;13.364;2022-08-19T13:35:02;10.67;;;9.87;;
5040;SDS011;2539;52.568;13.364;2022-08-19T13:37:29;11.50;;;10.50;;
5040;SDS011;2539;52.568;13.364;2022-08-19T13:40:12;11.00;;;10.10;;
5040;SDS011;2539;52.568;13.364;2022-08-19T13:42:48;11.45;;;10.30;;
5040;SDS011;2539;52.568;13.364;2022-08-19T13:45:17;11.53;;;10.53;;
5040;SDS011;2539;52.568;13.364;2022-08-19T13:47:46;10.95;;;10.05;;
5040;SDS011;2539;52.568;13.364;2022-08-19T13:50:15;11.13;;;10.13;;
5040;SDS011;2539;52.568;13.364;2022-08-19T13:52:48;11.23;;;10.37;;
5040;SDS011;2539;52.568;13.364;2022-08-19T13:55:14;13.90;;;12.50;;
5040;SDS011;2539;52.568;13.364;2022-08-19T13:57:41;11.97;;;10.90;;
5040;SDS011;2539;52.568;13.364;2022-08-19T14:00:10;12.68;;;11.48;;
5040;SDS011;2539;52.568;13.364;2022-08-19T14:02:39;23.93;;;21.57;;
5040;SDS011;2539;52.568;13.364;2022-08-19T14:05:07;16.43;;;15.00;;
5040;SDS011;2539;52.568;13.364;2022-08-19T14:07:36;13.73;;;12.43;;
5040;SDS011;2539;52.568;13.364;2022-08-19T14:10:06;11.13;;;10.20;;
5040;SDS011;2539;52.568;13.364;2022-08-19T14:12:34;12.50;;;11.60;;
5040;SDS011;2539;52.568;13.364;2022-08-19T14:15:02;11.03;;;10.13;;
5040;SDS011;2539;52.568;13.364;2022-08-19T14:17:30;11.37;;;10.23;;
5040;SDS011;2539;52.568;13.364;2022-08-19T14:19:56;11.87;;;10.77;;
5040;SDS011;2539;52.568;13.364;2022-08-19T14:22:24;10.33;;;9.50;;
5040;SDS011;2539;52.568;13.364;2022-08-19T14:24:51;10.30;;;9.40;;
5040;SDS011;2539;52.568;13.364;2022-08-19T14:27:19;11.27;;;10.47;;
5040;SDS011;2539;52.568;13.364;2022-08-19T14:29:45;10.67;;;9.77;;
5040;SDS011;2539;52.568;13.364;2022-08-19T14:32:11;12.00;;;10.90;;
5040;SDS011;2539;52.568;13.364;2022-08-19T14:34:37;10.27;;;9.47;;
5040;SDS011;2539;52.568;13.364;2022-08-19T14:37:04;10.93;;;9.83;;
5040;SDS011;2539;52.568;13.364;2022-08-19T14:39:31;10.00;;;9.07;;
5040;SDS011;2539;52.568;13.364;2022-08-19T14:41:57;9.23;;;8.53;;
5040;SDS011;2539;52.568;13.364;2022-08-19T14:44:24;10.20;;;9.40;;
5040;SDS011;2539;52.568;13.364;2022-08-19T14:46:50;10.73;;;9.93;;
5040;SDS011;2539;52.568;13.364;2022-08-19T14:49:17;12.00;;;9.23;;
5040;SDS011;2539;52.568;13.364;2022-08-19T14:51:43;10.10;;;9.10;;
5040;SDS011;2539;52.568;13.364;2022-08-19T14:54:12;13.70;;;10.43;;